Toronto, Kansas
Current Conditions -  °F | °C
As of 5:19 AM on Thursday 23 Oct 2014 (Local Time) from KCNU Reporting Station
Light Rain Light Rain  
Wind Chill: 60°   Ceiling: 2100
Heat Index: 60°   Visibility: 8mi
Dew Point: 59°   Wind: 5mph
Humidity: 96%   Direction: 150°SSE
Pressure: 30.11"   Gusts: NA
Location:  37.8°N, 95.95°W
Report Text: KCNU 231019Z AUTO 15004KT 8SM -RA BKN021 OVC100 16/15 A3011 RMK AO2 P0000 T01560150
Loading
Personal Weather Stations






























Interactive Weather Map
Tropical Storm Tracking
New forecast layout! Learn more

10-Day Weather Forecast

Advertisements
Track Severe Weather on mobile